Impacts TAF Board
For situational awareness. Not to be used for flight planning purposes.
IDs:

KPSC - Pasco/Tri Cities Arp, WA, US

Issued at 2321 UTC 18 Oct 2021
Updated at 0137 UTC 19 Oct 2021
Potential Impact None Slight Moderate High
Time0053Z 19/02Z 19/03Z 19/04Z 19/05Z 19/06Z 19/07Z 19/08Z 19/09Z 19/10Z 19/11Z 19/12Z 19/13Z 19/14Z>>
Type OBS PRVL PRVL PRVL PRVL PRVL PRVL PRVL PRVL PRVL PRVL PRVL PRVL PRVL
VIS 10 >6 >6 >6 >6 >6 >6 >6 >6 >6 >6 >6 >6 >6
CIG -- -- -- -- -- -- -- -- -- -- -- -- -- --
Cover CLR SKC SKC SKC SKC SKC SKC SKC SKC SKC SKC SKC SKC SKC
FltCat VFR VFR VFR VFR VFR VFR VFR VFR VFR VFR VFR VFR VFR VFR
WX -- -- -- -- -- -- -- -- -- -- -- -- -- --
WDir 160 240 VRB VRB VRB VRB VRB VRB VRB VRB VRB VRB VRB VRB
WSpd 6 6 3 3 3 3 3 3 3 3 3 3 3 3
WGst -- -- -- -- -- -- -- -- -- -- -- -- -- --
Raw TAF
KPSC 182321Z 1900/1924 24006KT P6SM SKC
  FM190300 VRB03KT P6SM SKC
  FM191700 01005KT P6SM SKC


Raw METAR
KPSC 190053Z 16006KT 10SM CLR 19/06 A2985 RMK AO2 SLP108 T01890056
KPSC 182353Z 08006KT 10SM CLR 21/05 A2985 RMK AO2 SLP106 T02060050 10217 20150 55002

METAR Board
Radar Display
Forecast Discussion
For situational awareness. Not to be used for flight planning purposes.